sensor_id;sensor_type;location;lat;lon;timestamp;P1;durP1;ratioP1;P2;durP2;ratioP2
64235;SDS011;50564;47.402;9.740;2022-09-14T00:03:29;2.13;;;1.02;;
64235;SDS011;50564;47.402;9.740;2022-09-14T00:08:30;2.97;;;1.00;;
64235;SDS011;50564;47.402;9.740;2022-09-14T00:13:31;2.15;;;1.10;;
64235;SDS011;50564;47.402;9.740;2022-09-14T00:18:32;2.63;;;1.33;;
64235;SDS011;50564;47.402;9.740;2022-09-14T00:23:34;2.53;;;1.20;;
64235;SDS011;50564;47.402;9.740;2022-09-14T00:28:46;1.77;;;0.90;;
64235;SDS011;50564;47.402;9.740;2022-09-14T00:33:49;2.88;;;1.10;;
64235;SDS011;50564;47.402;9.740;2022-09-14T00:38:50;1.65;;;0.88;;
64235;SDS011;50564;47.402;9.740;2022-09-14T00:49:38;2.35;;;0.80;;
64235;SDS011;50564;47.402;9.740;2022-09-14T00:54:53;3.28;;;0.93;;
64235;SDS011;50564;47.402;9.740;2022-09-14T00:59:56;4.55;;;1.85;;
64235;SDS011;50564;47.402;9.740;2022-09-14T01:04:57;4.63;;;2.30;;
64235;SDS011;50564;47.402;9.740;2022-09-14T01:21:41;3.42;;;2.03;;
64235;SDS011;50564;47.402;9.740;2022-09-14T01:32:06;5.57;;;2.10;;
64235;SDS011;50564;47.402;9.740;2022-09-14T01:42:14;7.30;;;2.40;;
64235;SDS011;50564;47.402;9.740;2022-09-14T01:47:18;5.35;;;1.95;;
64235;SDS011;50564;47.402;9.740;2022-09-14T01:52:23;3.47;;;1.60;;
64235;SDS011;50564;47.402;9.740;2022-09-14T02:02:38;8.07;;;1.95;;
64235;SDS011;50564;47.402;9.740;2022-09-14T02:07:41;6.88;;;1.98;;
64235;SDS011;50564;47.402;9.740;2022-09-14T02:12:42;4.60;;;1.90;;
64235;SDS011;50564;47.402;9.740;2022-09-14T02:17:43;3.50;;;1.63;;
64235;SDS011;50564;47.402;9.740;2022-09-14T02:22:43;5.38;;;2.25;;
64235;SDS011;50564;47.402;9.740;2022-09-14T02:27:44;4.45;;;1.92;;
64235;SDS011;50564;47.402;9.740;2022-09-14T02:32:51;3.08;;;1.70;;
64235;SDS011;50564;47.402;9.740;2022-09-14T02:53:38;3.88;;;1.50;;
64235;SDS011;50564;47.402;9.740;2022-09-14T02:58:43;4.65;;;1.40;;
64235;SDS011;50564;47.402;9.740;2022-09-14T03:03:44;3.80;;;1.33;;
64235;SDS011;50564;47.402;9.740;2022-09-14T03:08:45;6.07;;;1.45;;
64235;SDS011;50564;47.402;9.740;2022-09-14T03:13:45;5.88;;;1.50;;
64235;SDS011;50564;47.402;9.740;2022-09-14T03:18:46;3.13;;;1.58;;
64235;SDS011;50564;47.402;9.740;2022-09-14T03:23:48;4.28;;;1.65;;
64235;SDS011;50564;47.402;9.740;2022-09-14T03:28:51;6.00;;;1.40;;
64235;SDS011;50564;47.402;9.740;2022-09-14T03:33:54;5.65;;;1.50;;
64235;SDS011;50564;47.402;9.740;2022-09-14T03:38:57;4.30;;;2.05;;
64235;SDS011;50564;47.402;9.740;2022-09-14T03:43:58;3.70;;;2.45;;
64235;SDS011;50564;47.402;9.740;2022-09-14T03:48:59;5.65;;;2.13;;
64235;SDS011;50564;47.402;9.740;2022-09-14T03:53:59;8.30;;;1.92;;
64235;SDS011;50564;47.402;9.740;2022-09-14T03:59:00;3.85;;;1.70;;
64235;SDS011;50564;47.402;9.740;2022-09-14T04:04:01;5.75;;;1.90;;
64235;SDS011;50564;47.402;9.740;2022-09-14T04:09:01;5.88;;;1.60;;
64235;SDS011;50564;47.402;9.740;2022-09-14T04:14:03;5.57;;;1.63;;
64235;SDS011;50564;47.402;9.740;2022-09-14T04:19:04;6.75;;;2.00;;
64235;SDS011;50564;47.402;9.740;2022-09-14T04:24:05;9.27;;;2.30;;
64235;SDS011;50564;47.402;9.740;2022-09-14T04:29:06;5.18;;;1.70;;
64235;SDS011;50564;47.402;9.740;2022-09-14T04:34:06;7.43;;;1.80;;
64235;SDS011;50564;47.402;9.740;2022-09-14T04:39:08;9.68;;;2.42;;
64235;SDS011;50564;47.402;9.740;2022-09-14T04:44:10;4.90;;;2.20;;
64235;SDS011;50564;47.402;9.740;2022-09-14T04:49:11;5.22;;;2.38;;
64235;SDS011;50564;47.402;9.740;2022-09-14T04:54:13;6.00;;;3.47;;
64235;SDS011;50564;47.402;9.740;2022-09-14T04:59:15;5.65;;;2.42;;
64235;SDS011;50564;47.402;9.740;2022-09-14T05:04:16;5.82;;;2.65;;
64235;SDS011;50564;47.402;9.740;2022-09-14T05:09:17;6.30;;;2.00;;
64235;SDS011;50564;47.402;9.740;2022-09-14T05:14:18;3.97;;;2.33;;
64235;SDS011;50564;47.402;9.740;2022-09-14T05:19:18;6.05;;;2.70;;
64235;SDS011;50564;47.402;9.740;2022-09-14T05:24:19;4.80;;;2.47;;
64235;SDS011;50564;47.402;9.740;2022-09-14T05:29:20;5.43;;;1.90;;
64235;SDS011;50564;47.402;9.740;2022-09-14T05:34:20;5.68;;;2.03;;
64235;SDS011;50564;47.402;9.740;2022-09-14T05:39:21;8.25;;;2.15;;
64235;SDS011;50564;47.402;9.740;2022-09-14T05:44:21;6.75;;;1.60;;
64235;SDS011;50564;47.402;9.740;2022-09-14T05:49:22;5.18;;;2.00;;
64235;SDS011;50564;47.402;9.740;2022-09-14T05:54:24;6.03;;;1.90;;
64235;SDS011;50564;47.402;9.740;2022-09-14T05:59:25;7.40;;;2.55;;
64235;SDS011;50564;47.402;9.740;2022-09-14T06:04:25;6.75;;;2.30;;
64235;SDS011;50564;47.402;9.740;2022-09-14T06:09:26;5.68;;;2.83;;
64235;SDS011;50564;47.402;9.740;2022-09-14T06:14:27;4.43;;;2.13;;
64235;SDS011;50564;47.402;9.740;2022-09-14T06:19:27;6.25;;;2.15;;
64235;SDS011;50564;47.402;9.740;2022-09-14T06:24:28;7.07;;;2.78;;
64235;SDS011;50564;47.402;9.740;2022-09-14T06:29:29;10.40;;;2.47;;
64235;SDS011;50564;47.402;9.740;2022-09-14T06:34:29;7.50;;;2.72;;
64235;SDS011;50564;47.402;9.740;2022-09-14T06:39:30;8.98;;;2.30;;
64235;SDS011;50564;47.402;9.740;2022-09-14T06:44:30;6.13;;;2.40;;
64235;SDS011;50564;47.402;9.740;2022-09-14T06:49:31;10.23;;;2.10;;
64235;SDS011;50564;47.402;9.740;2022-09-14T06:54:32;6.90;;;2.25;;
64235;SDS011;50564;47.402;9.740;2022-09-14T06:59:32;8.27;;;2.60;;
64235;SDS011;50564;47.402;9.740;2022-09-14T07:04:34;5.25;;;2.67;;
64235;SDS011;50564;47.402;9.740;2022-09-14T07:09:36;11.98;;;3.20;;
64235;SDS011;50564;47.402;9.740;2022-09-14T07:14:36;6.60;;;2.28;;
64235;SDS011;50564;47.402;9.740;2022-09-14T07:19:37;7.82;;;2.35;;
64235;SDS011;50564;47.402;9.740;2022-09-14T07:24:38;6.05;;;2.45;;
64235;SDS011;50564;47.402;9.740;2022-09-14T07:29:38;7.25;;;2.45;;
64235;SDS011;50564;47.402;9.740;2022-09-14T07:34:39;5.93;;;2.00;;
64235;SDS011;50564;47.402;9.740;2022-09-14T07:39:40;12.05;;;3.53;;
64235;SDS011;50564;47.402;9.740;2022-09-14T07:44:40;8.32;;;3.30;;
64235;SDS011;50564;47.402;9.740;2022-09-14T07:49:41;7.75;;;2.97;;
64235;SDS011;50564;47.402;9.740;2022-09-14T07:54:41;6.43;;;2.30;;
64235;SDS011;50564;47.402;9.740;2022-09-14T07:59:42;6.72;;;2.70;;
64235;SDS011;50564;47.402;9.740;2022-09-14T08:04:43;4.25;;;2.40;;
64235;SDS011;50564;47.402;9.740;2022-09-14T08:09:43;10.88;;;2.50;;
64235;SDS011;50564;47.402;9.740;2022-09-14T08:14:44;6.15;;;2.72;;
64235;SDS011;50564;47.402;9.740;2022-09-14T08:19:45;5.95;;;2.75;;
64235;SDS011;50564;47.402;9.740;2022-09-14T08:24:45;9.68;;;3.30;;
64235;SDS011;50564;47.402;9.740;2022-09-14T08:29:47;7.13;;;2.85;;
64235;SDS011;50564;47.402;9.740;2022-09-14T08:34:47;5.85;;;2.40;;
64235;SDS011;50564;47.402;9.740;2022-09-14T08:39:48;8.20;;;2.92;;
64235;SDS011;50564;47.402;9.740;2022-09-14T08:44:52;8.30;;;3.20;;
64235;SDS011;50564;47.402;9.740;2022-09-14T08:54:57;10.07;;;3.00;;
64235;SDS011;50564;47.402;9.740;2022-09-14T09:00:13;9.77;;;3.15;;
64235;SDS011;50564;47.402;9.740;2022-09-14T09:10:35;13.85;;;3.70;;
64235;SDS011;50564;47.402;9.740;2022-09-14T09:20:50;5.75;;;2.33;;
64235;SDS011;50564;47.402;9.740;2022-09-14T09:31:25;5.88;;;2.60;;
64235;SDS011;50564;47.402;9.740;2022-09-14T09:37:03;8.27;;;2.20;;
64235;SDS011;50564;47.402;9.740;2022-09-14T09:42:16;11.20;;;2.38;;
64235;SDS011;50564;47.402;9.740;2022-09-14T09:52:35;6.03;;;2.05;;
64235;SDS011;50564;47.402;9.740;2022-09-14T09:57:36;5.28;;;1.90;;
64235;SDS011;50564;47.402;9.740;2022-09-14T10:02:37;2.92;;;1.90;;
64235;SDS011;50564;47.402;9.740;2022-09-14T10:13:01;5.57;;;2.08;;
64235;SDS011;50564;47.402;9.740;2022-09-14T10:33:30;7.25;;;2.30;;
64235;SDS011;50564;47.402;9.740;2022-09-14T10:38:33;8.73;;;2.17;;
64235;SDS011;50564;47.402;9.740;2022-09-14T10:44:03;7.05;;;2.10;;
64235;SDS011;50564;47.402;9.740;2022-09-14T11:10:40;7.13;;;2.00;;
64235;SDS011;50564;47.402;9.740;2022-09-14T11:26:30;9.18;;;2.38;;
64235;SDS011;50564;47.402;9.740;2022-09-14T11:31:35;8.68;;;2.30;;
64235;SDS011;50564;47.402;9.740;2022-09-14T11:37:02;6.60;;;2.00;;
64235;SDS011;50564;47.402;9.740;2022-09-14T11:42:07;6.35;;;2.88;;
64235;SDS011;50564;47.402;9.740;2022-09-14T11:47:18;8.00;;;2.53;;
64235;SDS011;50564;47.402;9.740;2022-09-14T11:52:27;7.40;;;2.10;;
64235;SDS011;50564;47.402;9.740;2022-09-14T11:57:29;4.78;;;2.15;;
64235;SDS011;50564;47.402;9.740;2022-09-14T12:18:21;4.40;;;2.22;;
64235;SDS011;50564;47.402;9.740;2022-09-14T12:28:40;7.00;;;3.30;;
64235;SDS011;50564;47.402;9.740;2022-09-14T12:39:26;8.50;;;2.55;;
64235;SDS011;50564;47.402;9.740;2022-09-14T12:44:37;6.35;;;2.13;;
64235;SDS011;50564;47.402;9.740;2022-09-14T12:49:39;6.25;;;2.70;;
64235;SDS011;50564;47.402;9.740;2022-09-14T13:04:57;5.47;;;2.80;;
64235;SDS011;50564;47.402;9.740;2022-09-14T13:09:58;5.30;;;2.58;;
64235;SDS011;50564;47.402;9.740;2022-09-14T13:15:12;9.93;;;3.15;;
64235;SDS011;50564;47.402;9.740;2022-09-14T13:20:17;8.55;;;2.40;;
64235;SDS011;50564;47.402;9.740;2022-09-14T13:25:24;7.38;;;2.83;;
64235;SDS011;50564;47.402;9.740;2022-09-14T13:30:33;6.72;;;2.75;;
64235;SDS011;50564;47.402;9.740;2022-09-14T13:35:42;4.85;;;2.42;;
64235;SDS011;50564;47.402;9.740;2022-09-14T13:40:47;7.07;;;2.67;;
64235;SDS011;50564;47.402;9.740;2022-09-14T13:45:49;10.43;;;3.15;;
64235;SDS011;50564;47.402;9.740;2022-09-14T13:50:50;12.30;;;3.90;;
64235;SDS011;50564;47.402;9.740;2022-09-14T13:55:51;11.13;;;3.40;;
64235;SDS011;50564;47.402;9.740;2022-09-14T14:00:58;9.48;;;3.22;;
64235;SDS011;50564;47.402;9.740;2022-09-14T14:06:14;6.30;;;2.90;;
64235;SDS011;50564;47.402;9.740;2022-09-14T14:11:23;8.65;;;3.08;;
64235;SDS011;50564;47.402;9.740;2022-09-14T14:16:34;8.82;;;2.55;;
64235;SDS011;50564;47.402;9.740;2022-09-14T14:21:34;8.93;;;2.95;;
64235;SDS011;50564;47.402;9.740;2022-09-14T14:26:35;4.60;;;2.75;;
64235;SDS011;50564;47.402;9.740;2022-09-14T14:31:36;7.25;;;2.47;;
64235;SDS011;50564;47.402;9.740;2022-09-14T14:36:36;9.88;;;3.33;;
64235;SDS011;50564;47.402;9.740;2022-09-14T14:41:37;5.68;;;3.05;;
64235;SDS011;50564;47.402;9.740;2022-09-14T14:46:39;7.53;;;2.97;;
64235;SDS011;50564;47.402;9.740;2022-09-14T14:51:40;8.57;;;2.85;;
64235;SDS011;50564;47.402;9.740;2022-09-14T14:56:41;6.00;;;2.17;;
64235;SDS011;50564;47.402;9.740;2022-09-14T15:01:46;6.38;;;2.60;;
64235;SDS011;50564;47.402;9.740;2022-09-14T15:06:48;5.93;;;2.80;;
64235;SDS011;50564;47.402;9.740;2022-09-14T15:11:49;5.93;;;2.50;;
64235;SDS011;50564;47.402;9.740;2022-09-14T15:16:50;5.80;;;2.25;;
64235;SDS011;50564;47.402;9.740;2022-09-14T15:21:54;8.30;;;2.38;;
64235;SDS011;50564;47.402;9.740;2022-09-14T15:26:54;6.63;;;2.30;;
64235;SDS011;50564;47.402;9.740;2022-09-14T15:31:56;9.18;;;2.70;;
64235;SDS011;50564;47.402;9.740;2022-09-14T15:36:56;7.10;;;3.20;;
64235;SDS011;50564;47.402;9.740;2022-09-14T15:41:58;6.35;;;3.20;;
64235;SDS011;50564;47.402;9.740;2022-09-14T15:46:58;8.02;;;2.50;;
64235;SDS011;50564;47.402;9.740;2022-09-14T15:52:00;5.13;;;2.33;;
64235;SDS011;50564;47.402;9.740;2022-09-14T15:57:01;5.13;;;2.10;;
64235;SDS011;50564;47.402;9.740;2022-09-14T16:02:03;4.90;;;1.80;;
64235;SDS011;50564;47.402;9.740;2022-09-14T16:07:04;5.65;;;2.15;;
64235;SDS011;50564;47.402;9.740;2022-09-14T16:12:09;5.85;;;2.10;;
64235;SDS011;50564;47.402;9.740;2022-09-14T16:17:10;9.20;;;3.13;;
64235;SDS011;50564;47.402;9.740;2022-09-14T16:22:11;7.07;;;2.38;;
64235;SDS011;50564;47.402;9.740;2022-09-14T16:27:12;7.53;;;2.55;;
64235;SDS011;50564;47.402;9.740;2022-09-14T16:32:12;8.25;;;2.72;;
64235;SDS011;50564;47.402;9.740;2022-09-14T16:37:13;5.40;;;1.83;;
64235;SDS011;50564;47.402;9.740;2022-09-14T16:42:14;4.45;;;1.90;;
64235;SDS011;50564;47.402;9.740;2022-09-14T16:47:14;6.05;;;2.28;;
64235;SDS011;50564;47.402;9.740;2022-09-14T16:52:15;3.13;;;1.88;;
64235;SDS011;50564;47.402;9.740;2022-09-14T16:57:15;9.07;;;2.42;;
64235;SDS011;50564;47.402;9.740;2022-09-14T17:02:16;3.60;;;2.10;;
64235;SDS011;50564;47.402;9.740;2022-09-14T17:07:17;6.45;;;2.40;;
64235;SDS011;50564;47.402;9.740;2022-09-14T17:12:17;7.63;;;2.78;;
64235;SDS011;50564;47.402;9.740;2022-09-14T17:17:18;8.05;;;2.78;;
64235;SDS011;50564;47.402;9.740;2022-09-14T17:22:19;7.55;;;2.58;;
64235;SDS011;50564;47.402;9.740;2022-09-14T17:27:20;6.50;;;2.28;;
64235;SDS011;50564;47.402;9.740;2022-09-14T17:32:20;6.10;;;2.60;;
64235;SDS011;50564;47.402;9.740;2022-09-14T17:37:21;8.48;;;2.50;;
64235;SDS011;50564;47.402;9.740;2022-09-14T17:42:22;5.40;;;2.25;;
64235;SDS011;50564;47.402;9.740;2022-09-14T17:47:23;7.50;;;2.65;;
64235;SDS011;50564;47.402;9.740;2022-09-14T17:52:25;7.15;;;3.55;;
64235;SDS011;50564;47.402;9.740;2022-09-14T17:57:26;7.70;;;2.97;;
64235;SDS011;50564;47.402;9.740;2022-09-14T18:02:26;3.90;;;2.30;;
64235;SDS011;50564;47.402;9.740;2022-09-14T18:07:27;5.00;;;2.25;;
64235;SDS011;50564;47.402;9.740;2022-09-14T18:12:31;7.60;;;2.30;;
64235;SDS011;50564;47.402;9.740;2022-09-14T18:17:35;4.65;;;2.38;;
64235;SDS011;50564;47.402;9.740;2022-09-14T18:22:36;4.82;;;1.98;;
64235;SDS011;50564;47.402;9.740;2022-09-14T18:27:37;4.85;;;2.35;;
64235;SDS011;50564;47.402;9.740;2022-09-14T18:32:38;4.85;;;1.95;;
64235;SDS011;50564;47.402;9.740;2022-09-14T18:37:38;5.50;;;2.60;;
64235;SDS011;50564;47.402;9.740;2022-09-14T18:42:39;6.22;;;2.65;;
64235;SDS011;50564;47.402;9.740;2022-09-14T18:47:39;5.55;;;2.55;;
64235;SDS011;50564;47.402;9.740;2022-09-14T18:52:40;6.10;;;2.05;;
64235;SDS011;50564;47.402;9.740;2022-09-14T18:57:47;2.95;;;1.65;;
64235;SDS011;50564;47.402;9.740;2022-09-14T19:02:51;4.32;;;2.20;;
64235;SDS011;50564;47.402;9.740;2022-09-14T19:07:53;4.00;;;2.03;;
64235;SDS011;50564;47.402;9.740;2022-09-14T19:12:53;5.22;;;1.90;;
64235;SDS011;50564;47.402;9.740;2022-09-14T19:17:54;8.35;;;2.10;;
64235;SDS011;50564;47.402;9.740;2022-09-14T19:22:54;7.28;;;1.80;;
64235;SDS011;50564;47.402;9.740;2022-09-14T19:27:55;5.07;;;2.22;;
64235;SDS011;50564;47.402;9.740;2022-09-14T19:32:56;2.92;;;1.88;;
64235;SDS011;50564;47.402;9.740;2022-09-14T19:37:58;2.90;;;1.67;;
64235;SDS011;50564;47.402;9.740;2022-09-14T19:42:59;4.28;;;2.20;;
64235;SDS011;50564;47.402;9.740;2022-09-14T19:47:59;4.80;;;2.10;;
64235;SDS011;50564;47.402;9.740;2022-09-14T19:53:00;5.80;;;2.25;;
64235;SDS011;50564;47.402;9.740;2022-09-14T19:58:01;4.40;;;2.22;;
64235;SDS011;50564;47.402;9.740;2022-09-14T20:03:01;4.40;;;2.17;;
64235;SDS011;50564;47.402;9.740;2022-09-14T20:08:02;6.10;;;2.40;;
64235;SDS011;50564;47.402;9.740;2022-09-14T20:13:03;5.20;;;2.67;;
64235;SDS011;50564;47.402;9.740;2022-09-14T20:18:04;8.57;;;3.50;;
64235;SDS011;50564;47.402;9.740;2022-09-14T20:23:04;6.70;;;4.07;;
64235;SDS011;50564;47.402;9.740;2022-09-14T20:28:05;5.35;;;3.83;;
64235;SDS011;50564;47.402;9.740;2022-09-14T20:33:05;8.25;;;5.20;;
64235;SDS011;50564;47.402;9.740;2022-09-14T20:38:06;7.53;;;3.90;;
64235;SDS011;50564;47.402;9.740;2022-09-14T20:43:07;6.53;;;3.05;;
64235;SDS011;50564;47.402;9.740;2022-09-14T20:48:10;7.30;;;3.38;;
64235;SDS011;50564;47.402;9.740;2022-09-14T20:53:11;5.93;;;3.28;;
64235;SDS011;50564;47.402;9.740;2022-09-14T20:58:11;8.27;;;3.17;;
64235;SDS011;50564;47.402;9.740;2022-09-14T21:03:12;7.70;;;2.92;;
64235;SDS011;50564;47.402;9.740;2022-09-14T21:08:13;8.90;;;3.72;;
64235;SDS011;50564;47.402;9.740;2022-09-14T21:13:13;7.28;;;3.05;;
64235;SDS011;50564;47.402;9.740;2022-09-14T21:18:14;6.07;;;3.35;;
64235;SDS011;50564;47.402;9.740;2022-09-14T21:23:16;9.50;;;3.47;;
64235;SDS011;50564;47.402;9.740;2022-09-14T21:28:17;5.75;;;3.33;;
64235;SDS011;50564;47.402;9.740;2022-09-14T21:33:18;4.82;;;2.70;;
64235;SDS011;50564;47.402;9.740;2022-09-14T21:38:18;6.10;;;2.80;;
64235;SDS011;50564;47.402;9.740;2022-09-14T21:43:20;5.82;;;2.65;;
64235;SDS011;50564;47.402;9.740;2022-09-14T21:48:21;9.18;;;3.25;;
64235;SDS011;50564;47.402;9.740;2022-09-14T21:53:21;4.45;;;2.42;;
64235;SDS011;50564;47.402;9.740;2022-09-14T21:58:22;5.10;;;2.95;;
64235;SDS011;50564;47.402;9.740;2022-09-14T22:03:23;5.63;;;2.42;;
64235;SDS011;50564;47.402;9.740;2022-09-14T22:08:24;5.15;;;2.25;;
64235;SDS011;50564;47.402;9.740;2022-09-14T22:13:26;7.90;;;1.98;;
64235;SDS011;50564;47.402;9.740;2022-09-14T22:18:26;3.60;;;1.67;;
64235;SDS011;50564;47.402;9.740;2022-09-14T22:23:28;1.98;;;1.60;;
64235;SDS011;50564;47.402;9.740;2022-09-14T22:28:29;4.80;;;1.88;;
64235;SDS011;50564;47.402;9.740;2022-09-14T22:33:30;4.38;;;1.83;;
64235;SDS011;50564;47.402;9.740;2022-09-14T22:38:31;5.47;;;2.15;;
64235;SDS011;50564;47.402;9.740;2022-09-14T22:43:33;4.60;;;1.83;;
64235;SDS011;50564;47.402;9.740;2022-09-14T22:48:34;3.85;;;1.90;;
64235;SDS011;50564;47.402;9.740;2022-09-14T22:53:36;6.10;;;1.90;;
64235;SDS011;50564;47.402;9.740;2022-09-14T22:58:37;2.38;;;1.63;;
64235;SDS011;50564;47.402;9.740;2022-09-14T23:03:37;4.38;;;1.77;;
64235;SDS011;50564;47.402;9.740;2022-09-14T23:08:38;3.03;;;1.45;;
64235;SDS011;50564;47.402;9.740;2022-09-14T23:13:39;5.00;;;2.15;;
64235;SDS011;50564;47.402;9.740;2022-09-14T23:18:41;5.20;;;1.73;;
64235;SDS011;50564;47.402;9.740;2022-09-14T23:23:42;2.25;;;1.50;;
64235;SDS011;50564;47.402;9.740;2022-09-14T23:28:43;5.03;;;1.92;;
64235;SDS011;50564;47.402;9.740;2022-09-14T23:33:43;2.92;;;1.60;;
64235;SDS011;50564;47.402;9.740;2022-09-14T23:38:48;2.95;;;2.20;;
64235;SDS011;50564;47.402;9.740;2022-09-14T23:43:49;3.10;;;1.67;;
64235;SDS011;50564;47.402;9.740;2022-09-14T23:48:50;6.05;;;1.80;;
64235;SDS011;50564;47.402;9.740;2022-09-14T23:53:51;3.58;;;2.25;;
64235;SDS011;50564;47.402;9.740;2022-09-14T23:58:52;7.57;;;3.00;;
